Arapahoe, Colorado
Current Conditions -  °F | °C
As of 5:43 PM on Wednesday 17 Dec 2014 (Local Time) from KITR Reporting Station
Haze Haze  
Wind Chill: 26°   Ceiling: 300
Heat Index: 26°   Visibility: 1.7mi
Dew Point: 23°   Wind: 3mph
Humidity: 88%   Direction: 70°ENE
Pressure: 29.99"   Gusts: NA
Location:  38.85°N, 102.18°W
Report Text: KITR 180043Z AUTO 07003KT 1 3/4SM BR OVC003 M03/M05 A2999 RMK AO2 T10331050
Loading
Personal Weather Stations






























Interactive Weather Map New forecast layout! Learn more

10-Day Weather Forecast

Advertisements
Track Severe Weather on mobile